createdAt,value
2019-06-07T00:00:38.205Z,101351.18
2019-06-07T00:03:32.650Z,101351.57
2019-06-07T00:06:36.352Z,101340.31
2019-06-07T00:09:40.334Z,101340.30
2019-06-07T00:12:44.031Z,101328.66
2019-06-07T00:15:47.737Z,101329.91
2019-06-07T00:18:51.958Z,101336.17
2019-06-07T00:25:01.460Z,101329.31
2019-06-07T00:28:05.518Z,101331.46
2019-06-07T00:31:09.249Z,101329.50
2019-06-07T00:34:14.060Z,101329.70
2019-06-07T00:37:20.625Z,101329.19
2019-06-07T00:40:31.427Z,101334.00
2019-06-07T00:43:29.846Z,101342.59
2019-06-07T00:46:33.962Z,101341.69
2019-06-07T00:49:41.362Z,101345.03
2019-06-07T00:53:13.828Z,101339.59
2019-06-07T00:55:48.738Z,101336.10
2019-06-07T00:59:10.322Z,101326.26
2019-06-07T01:01:58.138Z,101327.39
2019-06-07T01:05:01.814Z,101325.86
2019-06-07T01:08:05.747Z,101320.80
2019-06-07T01:11:09.907Z,101325.64
2019-06-07T01:14:14.605Z,101332.65
2019-06-07T01:17:40.065Z,101337.91
2019-06-07T01:20:31.699Z,101343.98
2019-06-07T01:24:05.339Z,101343.70
2019-06-07T01:26:40.892Z,101340.89
2019-06-07T01:29:44.607Z,101345.04
2019-06-07T01:32:48.302Z,101342.25
2019-06-07T01:35:52.041Z,101337.71
2019-06-07T01:38:55.739Z,101349.98
2019-06-07T01:41:59.546Z,101346.38
2019-06-07T01:45:03.385Z,101340.25
2019-06-07T01:48:07.397Z,101335.70
2019-06-07T01:51:11.634Z,101341.83
2019-06-07T01:57:43.087Z,101338.58
2019-06-07T02:00:31.899Z,101335.31
2019-06-07T02:03:33.358Z,101325.32
2019-06-07T02:06:37.429Z,101325.44
2019-06-07T02:09:41.117Z,101330.11
2019-06-07T02:12:45.543Z,101314.94
2019-06-07T02:15:49.224Z,101311.25
2019-06-07T02:19:01.750Z,101302.23
2019-06-07T02:21:58.896Z,101309.33
2019-06-07T02:25:35.264Z,101316.66
2019-06-07T02:28:27.211Z,101319.48
2019-06-07T02:31:13.769Z,101316.57
2019-06-07T02:34:17.543Z,101310.30
2019-06-07T02:37:21.662Z,101313.02
2019-06-07T02:40:27.997Z,101309.41
2019-06-07T02:43:35.133Z,101318.30
2019-06-07T02:46:46.557Z,101310.03
2019-06-07T02:49:42.526Z,101311.86
2019-06-07T02:52:49.031Z,101311.86
2019-06-07T02:56:35.461Z,101310.23
2019-06-07T02:58:58.855Z,101306.99
2019-06-07T03:02:02.945Z,101311.66
2019-06-07T03:05:07.134Z,101307.08
2019-06-07T03:08:13.666Z,101308.94
2019-06-07T03:11:17.599Z,101308.94
2019-06-07T03:14:22.260Z,101308.31
2019-06-07T03:17:40.708Z,101300.80
2019-06-07T03:21:03.491Z,101302.08
2019-06-07T03:23:56.017Z,101296.70
2019-06-07T03:30:35.320Z,101310.39
2019-06-07T03:33:11.707Z,101321.39
2019-06-07T03:36:23.859Z,101321.78
2019-06-07T03:39:21.126Z,101318.34
2019-06-07T03:42:29.074Z,101326.81
2019-06-07T03:45:35.173Z,101319.59
2019-06-07T03:48:41.018Z,101316.23
2019-06-07T03:51:44.210Z,101312.32
2019-06-07T03:54:48.485Z,101324.95
2019-06-07T04:01:01.903Z,101323.88
2019-06-07T04:04:03.602Z,101322.42
2019-06-07T04:07:11.622Z,101325.21
2019-06-07T04:10:15.726Z,101328.27
2019-06-07T04:13:19.448Z,101327.27
2019-06-07T04:16:23.093Z,101324.81
2019-06-07T04:19:28.730Z,101319.30
2019-06-07T04:22:37.604Z,101311.42
2019-06-07T04:25:42.250Z,101314.74
2019-06-07T04:31:49.333Z,101317.90
2019-06-07T04:34:53.276Z,101311.67
2019-06-07T04:37:57.351Z,101312.16
2019-06-07T04:41:01.578Z,101320.91
2019-06-07T04:44:05.344Z,101316.52
2019-06-07T04:47:12.111Z,101317.48
2019-06-07T04:50:16.153Z,101323.31
2019-06-07T04:53:19.869Z,101327.99
2019-06-07T04:56:23.513Z,101328.47
2019-06-07T05:00:04.165Z,101336.50
2019-06-07T05:02:36.829Z,101338.94
2019-06-07T05:05:41.920Z,101346.72
2019-06-07T05:08:44.062Z,101347.47
2019-06-07T05:11:47.784Z,101341.42
2019-06-07T05:14:51.481Z,101331.05
2019-06-07T05:17:55.610Z,101325.80
2019-06-07T05:20:59.734Z,101316.63
2019-06-07T05:24:09.638Z,101319.58
2019-06-07T05:27:09.062Z,101317.55
2019-06-07T05:30:57.865Z,101331.55
2019-06-07T05:33:19.250Z,101333.00
2019-06-07T05:36:23.274Z,101338.22
2019-06-07T05:39:26.975Z,101334.52
2019-06-07T05:42:32.124Z,101338.53
2019-06-07T05:45:39.283Z,101344.23
2019-06-07T05:48:43.795Z,101347.66
2019-06-07T05:51:47.610Z,101347.90
2019-06-07T05:54:51.611Z,101358.59
2019-06-07T05:57:55.320Z,101365.23
2019-06-07T06:01:40.986Z,101369.72
2019-06-07T06:04:04.551Z,101365.02
2019-06-07T06:07:08.252Z,101360.83
2019-06-07T06:10:12.501Z,101363.09
2019-06-07T06:13:16.493Z,101357.45
2019-06-07T06:16:20.652Z,101355.65
2019-06-07T06:19:24.362Z,101351.48
2019-06-07T06:22:28.045Z,101351.64
2019-06-07T06:25:33.880Z,101358.91
2019-06-07T06:28:38.362Z,101361.58
2019-06-07T06:32:35.829Z,101349.61
2019-06-07T06:34:52.760Z,101349.61
2019-06-07T06:37:53.651Z,101352.43
2019-06-07T06:41:14.347Z,101350.45
2019-06-07T06:44:02.730Z,101345.64
2019-06-07T06:47:06.423Z,101335.27
2019-06-07T06:50:11.989Z,101343.49
2019-06-07T06:53:15.687Z,101345.59
2019-06-07T06:56:19.380Z,101343.00
2019-06-07T06:59:40.008Z,101343.20
2019-06-07T07:02:28.869Z,101341.17
2019-06-07T07:05:32.915Z,101343.18
2019-06-07T07:08:36.746Z,101350.02
2019-06-07T07:11:55.307Z,101348.01
2019-06-07T07:14:49.167Z,101345.34
2019-06-07T07:18:03.733Z,101345.02
2019-06-07T07:20:57.741Z,101340.85
2019-06-07T07:24:20.135Z,101338.09
2019-06-07T07:27:07.628Z,101339.70
2019-06-07T07:33:17.704Z,101332.79
2019-06-07T07:36:38.136Z,101337.33
2019-06-07T07:39:27.411Z,101332.90
2019-06-07T07:42:31.691Z,101326.56
2019-06-07T07:45:35.552Z,101341.95
2019-06-07T07:48:39.682Z,101339.35
2019-06-07T07:51:44.025Z,101342.47
2019-06-07T07:54:49.332Z,101340.76
2019-06-07T07:58:00.987Z,101340.93
2019-06-07T08:01:09.789Z,101337.02
2019-06-07T08:04:05.095Z,101337.68
2019-06-07T08:07:08.788Z,101341.23
2019-06-07T08:10:13.039Z,101342.05
2019-06-07T08:13:25.413Z,101335.94
2019-06-07T08:16:22.389Z,101309.44
2019-06-07T08:19:26.067Z,101304.41
2019-06-07T08:22:30.063Z,101301.55
2019-06-07T08:25:34.483Z,101302.33
2019-06-07T08:28:38.187Z,101300.71
2019-06-07T08:31:42.124Z,101292.98
2019-06-07T08:34:45.813Z,101287.39
2019-06-07T08:38:21.542Z,101290.67
2019-06-07T08:41:02.220Z,101296.23
2019-06-07T08:44:15.729Z,101295.59
2019-06-07T08:47:19.976Z,101290.58
2019-06-07T08:50:13.069Z,101287.77
2019-06-07T08:53:16.769Z,101284.84
2019-06-07T08:56:20.572Z,101292.70
2019-06-07T08:59:24.396Z,101281.31
2019-06-07T09:02:28.080Z,101287.02
2019-06-07T09:05:31.921Z,101277.61
2019-06-07T09:08:35.964Z,101275.69
2019-06-07T09:11:40.523Z,101271.05
2019-06-07T09:14:59.985Z,101265.45
2019-06-07T09:18:34.961Z,101271.57
2019-06-07T09:20:57.468Z,101274.01
2019-06-07T09:24:07.091Z,101268.20
2019-06-07T09:27:08.400Z,101258.66
2019-06-07T09:30:18.680Z,101262.74
2019-06-07T09:33:19.973Z,101254.63
2019-06-07T09:36:23.675Z,101258.36
2019-06-07T09:39:27.361Z,101246.64
2019-06-07T09:42:31.053Z,101244.13
2019-06-07T09:45:35.199Z,101237.91
2019-06-07T09:51:44.827Z,101238.31
2019-06-07T09:55:15.188Z,101227.17
2019-06-07T09:57:54.396Z,101221.45
2019-06-07T10:01:00.080Z,101216.91
2019-06-07T10:04:08.281Z,101199.95
2019-06-07T10:07:30.201Z,101195.85
2019-06-07T10:13:20.798Z,101196.09
2019-06-07T10:16:24.482Z,101192.59
2019-06-07T10:19:28.759Z,101191.28
2019-06-07T10:22:32.782Z,101197.34
2019-06-07T10:25:36.536Z,101195.83
2019-06-07T10:28:40.546Z,101199.78
2019-06-07T10:31:44.249Z,101200.65
2019-06-07T10:34:48.353Z,101196.28
2019-06-07T10:37:52.655Z,101189.52
2019-06-07T10:40:56.332Z,101193.34
2019-06-07T10:44:01.045Z,101195.73
2019-06-07T10:47:06.002Z,101196.22
2019-06-07T10:50:10.490Z,101194.41
2019-06-07T10:53:14.167Z,101201.56
2019-06-07T10:56:17.927Z,101186.23
2019-06-07T10:59:21.635Z,101193.06
2019-06-07T11:02:25.314Z,101188.58
2019-06-07T11:05:29.310Z,101182.67
2019-06-07T11:08:33.322Z,101194.27
2019-06-07T11:11:37.673Z,101181.02
2019-06-07T11:14:41.712Z,101171.83
2019-06-07T11:17:45.409Z,101164.04
2019-06-07T11:20:49.101Z,101163.84
2019-06-07T11:23:52.822Z,101164.66
2019-06-07T11:26:56.574Z,101157.98
2019-06-07T11:30:00.595Z,101159.58
2019-06-07T11:33:04.722Z,101158.34
2019-06-07T11:36:08.809Z,101143.55
2019-06-07T11:39:12.851Z,101141.19
2019-06-07T11:42:16.593Z,101137.48
2019-06-07T11:45:20.867Z,101130.77
2019-06-07T11:48:24.663Z,101130.20
2019-06-07T11:51:28.514Z,101112.31
2019-06-07T11:54:32.253Z,101111.59
2019-06-07T11:57:36.216Z,101113.69
2019-06-07T12:00:39.918Z,101100.16
2019-06-07T12:03:43.800Z,101103.10
2019-06-07T12:06:47.493Z,101102.63
2019-06-07T12:09:56.438Z,101097.34
2019-06-07T12:12:56.965Z,101084.75
2019-06-07T12:16:01.144Z,101071.94
2019-06-07T12:19:05.110Z,101075.17
2019-06-07T12:22:09.863Z,101060.38
2019-06-07T12:25:19.066Z,101054.02
2019-06-07T12:28:19.325Z,101043.30
2019-06-07T12:31:23.042Z,101048.42
2019-06-07T12:34:26.729Z,101051.20
2019-06-07T12:37:43.250Z,101044.13
2019-06-07T12:40:35.937Z,101043.28
2019-06-07T12:43:39.890Z,101035.20
2019-06-07T12:46:43.765Z,101040.52
2019-06-07T12:49:47.494Z,101034.86
2019-06-07T12:52:51.736Z,101035.97
2019-06-07T12:55:55.729Z,101034.25
2019-06-07T12:58:59.425Z,101040.39
2019-06-07T13:02:03.110Z,101031.47
2019-06-07T13:05:07.389Z,101019.61
2019-06-07T13:08:11.085Z,101017.21
2019-06-07T13:11:21.398Z,101011.41
2019-06-07T13:14:20.444Z,101014.70
2019-06-07T13:17:24.233Z,101016.31
2019-06-07T13:20:28.837Z,101006.83
2019-06-07T13:23:32.712Z,100998.92
2019-06-07T13:26:36.629Z,100992.48
2019-06-07T13:29:40.320Z,100985.92
2019-06-07T13:32:44.007Z,100988.34
2019-06-07T13:35:47.696Z,100984.25
2019-06-07T13:38:51.721Z,100983.34
2019-06-07T13:41:55.437Z,100987.84
2019-06-07T13:44:59.763Z,100985.17
2019-06-07T13:48:03.464Z,100967.62
2019-06-07T13:51:07.459Z,100961.27
2019-06-07T13:54:11.150Z,100961.95
2019-06-07T13:57:15.109Z,100957.39
2019-06-07T14:00:21.144Z,100951.00
2019-06-07T14:03:30.425Z,100940.21
2019-06-07T14:06:31.029Z,100934.67
2019-06-07T14:09:34.713Z,100944.29
2019-06-07T14:12:38.834Z,100936.19
2019-06-07T14:15:42.543Z,100923.06
2019-06-07T14:18:46.614Z,100914.84
2019-06-07T14:21:50.308Z,100914.75
2019-06-07T14:24:54.278Z,100907.02
2019-06-07T14:27:58.288Z,100902.73
2019-06-07T14:31:02.393Z,100904.30
2019-06-07T14:34:06.079Z,100895.32
2019-06-07T14:37:09.818Z,100889.21
2019-06-07T14:40:13.992Z,100900.55
2019-06-07T14:43:17.801Z,100894.22
2019-06-07T14:46:21.786Z,100892.52
2019-06-07T14:49:26.404Z,100892.52
2019-06-07T14:52:30.680Z,100886.86
2019-06-07T14:55:35.141Z,100882.48
2019-06-07T14:58:43.253Z,100877.59
2019-06-07T15:01:44.573Z,100876.86
2019-06-07T15:04:48.599Z,100866.59
2019-06-07T15:07:52.316Z,100862.55
2019-06-07T15:10:56.421Z,100857.95
2019-06-07T15:14:00.242Z,100849.81
2019-06-07T15:17:04.021Z,100832.63
2019-06-07T15:20:08.105Z,100833.77
2019-06-07T15:23:11.826Z,100818.52
2019-06-07T15:26:15.532Z,100821.48
2019-06-07T15:29:19.230Z,100818.92
2019-06-07T15:32:22.970Z,100816.23
2019-06-07T15:35:28.013Z,100817.50
2019-06-07T15:38:33.115Z,100809.81
2019-06-07T15:41:37.555Z,100803.99
2019-06-07T15:44:41.702Z,100798.58
2019-06-07T15:47:45.456Z,100790.14
2019-06-07T15:50:49.446Z,100780.64
2019-06-07T15:53:53.151Z,100778.00
2019-06-07T15:56:56.850Z,100768.31
2019-06-07T16:00:00.683Z,100772.69
2019-06-07T16:03:04.562Z,100767.34
2019-06-07T16:06:08.874Z,100768.39
2019-06-07T16:09:12.907Z,100760.01
2019-06-07T16:12:16.707Z,100758.30
2019-06-07T16:15:21.278Z,100754.90
2019-06-07T16:18:25.249Z,100749.72
2019-06-07T16:21:28.968Z,100743.48
2019-06-07T16:24:33.662Z,100740.88
2019-06-07T16:27:38.678Z,100734.84
2019-06-07T16:30:42.735Z,100728.53
2019-06-07T16:33:46.649Z,100729.42
2019-06-07T16:36:50.555Z,100728.19
2019-06-07T16:39:54.296Z,100721.42
2019-06-07T16:43:07.054Z,100721.00
2019-06-07T16:46:03.682Z,100715.34
2019-06-07T16:49:07.811Z,100713.88
2019-06-07T16:52:11.611Z,100714.73
2019-06-07T16:55:15.890Z,100721.13
2019-06-07T16:58:19.594Z,100711.50
2019-06-07T17:01:23.432Z,100707.52
2019-06-07T17:04:27.136Z,100709.38
2019-06-07T17:07:30.856Z,100710.64
2019-06-07T17:10:34.647Z,100710.06
2019-06-07T17:13:38.398Z,100696.38
2019-06-07T17:16:43.169Z,100696.38
2019-06-07T17:19:47.536Z,100689.08
2019-06-07T17:22:51.264Z,100685.38
2019-06-07T17:25:54.964Z,100688.31
2019-06-07T17:28:58.946Z,100692.14
2019-06-07T17:32:02.705Z,100692.48
2019-06-07T17:35:06.882Z,100686.31
2019-06-07T17:38:11.500Z,100692.71
2019-06-07T17:41:15.490Z,100691.47
2019-06-07T17:44:19.793Z,100696.34
2019-06-07T17:47:23.991Z,100687.03
2019-06-07T17:50:28.096Z,100685.91
2019-06-07T17:53:32.404Z,100689.55
2019-06-07T17:56:36.401Z,100682.56
2019-06-07T17:59:40.194Z,100675.44
2019-06-07T18:02:44.681Z,100671.70
2019-06-07T18:05:51.280Z,100665.75
2019-06-07T18:08:57.106Z,100677.75
2019-06-07T18:12:01.012Z,100676.05
2019-06-07T18:15:05.584Z,100672.38
2019-06-07T18:18:09.899Z,100677.11
2019-06-07T18:21:13.593Z,100677.52
2019-06-07T18:24:17.319Z,100679.12
2019-06-07T18:27:21.034Z,100671.03
2019-06-07T18:30:24.733Z,100682.47
2019-06-07T18:33:28.511Z,100682.41
2019-06-07T18:36:32.211Z,100680.11
2019-06-07T18:39:36.012Z,100681.30
2019-06-07T18:42:40.461Z,100673.31
2019-06-07T18:45:44.190Z,100673.41
2019-06-07T18:48:48.385Z,100674.20
2019-06-07T18:52:13.951Z,100668.59
2019-06-07T18:55:17.951Z,100669.14
2019-06-07T18:58:21.974Z,100677.41
2019-06-07T19:01:25.702Z,100671.80
2019-06-07T19:04:29.725Z,100661.86
2019-06-07T19:07:33.610Z,100664.41
2019-06-07T19:10:37.670Z,100671.84
2019-06-07T19:13:41.955Z,100683.80
2019-06-07T19:16:45.862Z,100686.64
2019-06-07T19:19:49.892Z,100690.38
2019-06-07T19:22:54.225Z,100693.47
2019-06-07T19:25:58.585Z,100692.80
2019-06-07T19:29:02.417Z,100694.58
2019-06-07T19:32:06.202Z,100692.75
2019-06-07T19:35:10.603Z,100689.91
2019-06-07T19:38:16.947Z,100707.99
2019-06-07T19:41:20.175Z,100721.59
2019-06-07T19:44:24.140Z,100721.10
2019-06-07T19:47:27.919Z,100726.75
2019-06-07T19:50:31.624Z,100726.75
2019-06-07T19:53:35.369Z,100722.36
2019-06-07T19:56:39.157Z,100718.53
2019-06-07T19:59:43.378Z,100721.73
2019-06-07T20:02:47.070Z,100726.99
2019-06-07T20:05:50.770Z,100738.37
2019-06-07T20:08:54.580Z,100740.17
2019-06-07T20:11:58.580Z,100735.52
2019-06-07T20:15:24.589Z,100739.25
2019-06-07T20:18:07.892Z,100742.30
2019-06-07T20:21:11.730Z,100739.31
2019-06-07T20:24:26.810Z,100737.78
2019-06-07T20:27:21.263Z,100748.44
2019-06-07T20:30:25.413Z,100748.69
2019-06-07T20:33:29.214Z,100759.69
2019-06-07T20:36:33.064Z,100763.16
2019-06-07T20:39:36.770Z,100769.97
2019-06-07T20:42:40.584Z,100772.63
2019-06-07T20:45:44.562Z,100785.32
2019-06-07T20:48:48.338Z,100797.00
2019-06-07T20:51:52.411Z,100796.92
2019-06-07T20:54:56.749Z,100803.55
2019-06-07T20:58:00.843Z,100795.77
2019-06-07T21:01:04.974Z,100784.69
2019-06-07T21:04:09.362Z,100779.44
2019-06-07T21:07:13.479Z,100772.38
2019-06-07T21:10:17.496Z,100762.64
2019-06-07T21:13:21.632Z,100764.91
2019-06-07T21:16:25.492Z,100769.39
2019-06-07T21:19:29.199Z,100764.66
2019-06-07T21:22:32.908Z,100765.51
2019-06-07T21:25:36.729Z,100758.27
2019-06-07T21:28:40.466Z,100769.41
2019-06-07T21:31:44.685Z,100764.69
2019-06-07T21:34:48.389Z,100771.19
2019-06-07T21:37:52.329Z,100790.81
2019-06-07T21:40:56.016Z,100799.84
2019-06-07T21:43:59.851Z,100824.22
2019-06-07T21:47:04.197Z,100865.12
2019-06-07T21:50:10.835Z,100879.05
2019-06-07T21:53:14.692Z,100901.12
2019-06-07T21:56:18.433Z,100917.75
2019-06-07T21:59:22.861Z,100938.75
2019-06-07T22:02:26.803Z,100964.56
2019-06-07T22:05:30.512Z,101004.73
2019-06-07T22:08:34.216Z,101018.96
2019-06-07T22:11:37.941Z,101019.29
2019-06-07T22:14:41.990Z,100992.34
2019-06-07T22:17:46.274Z,100963.30
2019-06-07T22:20:49.964Z,100958.94
2019-06-07T22:23:54.155Z,100968.99
2019-06-07T22:26:57.906Z,100976.92
2019-06-07T22:30:01.599Z,100999.91
2019-06-07T22:33:06.421Z,101004.70
2019-06-07T22:36:11.031Z,100980.56
2019-06-07T22:39:15.816Z,100962.19
2019-06-07T22:42:19.603Z,100945.72
2019-06-07T22:45:23.679Z,100943.45
2019-06-07T22:48:27.390Z,100924.87
2019-06-07T22:51:31.087Z,100931.76
2019-06-07T22:54:34.870Z,100936.64
2019-06-07T22:57:58.670Z,100940.77
2019-06-07T23:01:02.371Z,100944.48
2019-06-07T23:04:06.083Z,100954.73
2019-06-07T23:07:10.817Z,100956.85
2019-06-07T23:10:15.458Z,100938.22
2019-06-07T23:13:19.632Z,100921.14
2019-06-07T23:16:23.390Z,100903.64
2019-06-07T23:19:27.143Z,100933.04
2019-06-07T23:22:31.135Z,100958.44
2019-06-07T23:25:35.206Z,100933.73
2019-06-07T23:28:38.982Z,100930.42
2019-06-07T23:31:42.808Z,100947.94
2019-06-07T23:34:46.507Z,100930.52
2019-06-07T23:37:50.218Z,100957.48
2019-06-07T23:40:54.208Z,100902.38
2019-06-07T23:43:57.917Z,100880.36
2019-06-07T23:47:10.873Z,100881.05
2019-06-07T23:50:07.652Z,100886.05
2019-06-07T23:53:11.720Z,100870.36
2019-06-07T23:56:15.961Z,100891.89
2019-06-07T23:59:20.206Z,100925.16
